Time;durP1;ratioP1;P1;durP2;ratioP2;P2;SDS_P1;SDS_P2;PMS_P1;PMS_P2;Temp;Humidity;BMP_temperature;BMP_pressure;BME280_temperature;BME280_humidity;BME280_pressure;Samples;Min_cycle;Max_cycle;Signal;HPM_P1;HPM_P2
2022/06/20 00:00:51;;;;;;;11.35;3.67;;;;;;;;;;5206526;28;20541;-83
2022/06/20 00:03:56;;;;;;;;;;;;;;;;;;;;;
2022/06/20 00:23:55;;;;;;;;;;;;;;;;;;;;;
2022/06/20 00:27:10;;;;;;;;;;;;;;;;;;;;;
2022/06/20 00:30:27;;;;;;;9.90;2.55;;;;;;;;;;5151593;28;39824;-83
2022/06/20 00:42:38;;;;;;;6.63;2.22;;;;;;;;;;5128953;28;20189;-83
2022/06/20 00:58:51;;;;;;;;;;;;;;;;;;;;;
2022/06/20 01:02:09;;;;;;;9.57;2.22;;;;;;;;;;5201838;28;41172;-83
2022/06/20 01:05:20;;;;;;;;;;;;;;;;;;;;;
2022/06/20 01:25:11;;;;;;;;;;;;;;;;;;;;;
2022/06/20 01:31:20;;;;;;;10.65;2.60;;;;;;;;;;5130486;28;20083;-84
2022/06/20 01:34:32;;;;;;;;;;;;;;;;;;;;;
2022/06/20 01:38:12;;;;;;;;;;;;;;;;;;;;;
2022/06/20 01:51:16;;;;;;;8.70;2.70;;;;;;;;;;5092462;29;20048;-84
2022/06/20 01:57:41;;;;;;;;;;;;;;;;;;;;;
2022/06/20 02:07:18;;;;;;;;;;;;;;;;;;;;;
2022/06/20 02:24:17;;;;;;;;;;;;;;;;;;;;;
2022/06/20 02:30:31;;;;;;;;;;;;;;;;;;;;;
2022/06/20 02:43:12;;;;;;;8.73;2.42;;;;;;;;;;5099712;29;20093;-83
2022/06/20 02:46:18;;;;;;;6.20;2.00;;;;;;;;;;5095396;29;20073;-83
2022/06/20 02:52:37;;;;;;;8.52;2.53;;;;;;;;;;5170692;28;20078;-82
2022/06/20 03:45:16;;;;;;;7.28;2.40;;;;;;;;;;5109827;29;20848;-83
2022/06/20 03:48:27;;;;;;;;;;;;;;;;;;;;;
2022/06/20 03:51:37;;;;;;;8.45;2.60;;;;;;;;;;5094439;28;41208;-83
2022/06/20 03:54:35;;;;;;;8.27;2.25;;;;;;;;;;5167574;28;20051;-83
2022/06/20 03:57:35;;;;;;;7.65;1.90;;;;;;;;;;5226832;28;20192;-83
2022/06/20 04:06:39;;;;;;;9.73;2.53;;;;;;;;;;5203772;28;20038;-83
2022/06/20 04:19:52;;;;;;;12.98;2.78;;;;;;;;;;5208904;28;20034;-84
2022/06/20 04:26:22;;;;;;;12.90;2.25;;;;;;;;;;5154015;28;20050;-84
2022/06/20 04:32:37;;;;;;;7.32;2.20;;;;;;;;;;5173094;28;20047;-83
2022/06/20 04:38:46;;;;;;;;;;;;;;;;;;;;;
2022/06/20 04:41:53;;;;;;;;;;;;;;;;;;;;;
2022/06/20 04:45:28;;;;;;;;;;;;;;;;;;;;;
2022/06/20 04:48:35;;;;;;;;;;;;;;;;;;;;;
2022/06/20 04:51:46;;;;;;;;;;;;;;;;;;;;;
2022/06/20 04:58:03;;;;;;;9.82;2.97;;;;;;;;;;5157867;28;20081;-83
2022/06/20 05:14:15;;;;;;;;;;;;;;;;;;;;;
2022/06/20 05:20:50;;;;;;;;;;;;;;;;;;;;;
2022/06/20 05:43:59;;;;;;;;;;;;;;;;;;;;;
2022/06/20 05:46:59;;;;;;;4.55;1.83;;;;;;;;;;5205209;28;41124;-83
2022/06/20 05:50:12;;;;;;;8.95;2.72;;;;;;;;;;5162137;28;20054;-83
2022/06/20 05:53:28;;;;;;;;;;;;;;;;;;;;;
2022/06/20 05:59:59;;;;;;;7.82;2.25;;;;;;;;;;5077912;29;20061;-83
2022/06/20 06:06:24;;;;;;;7.82;1.85;;;;;;;;;;5190758;28;20035;-82
2022/06/20 06:09:46;;;;;;;7.55;2.10;;;;;;;;;;5150289;28;20052;-82
2022/06/20 06:12:23;;;;;;;7.90;2.30;;;;;;;;;;5187772;28;20055;-83
2022/06/20 06:18:50;;;;;;;8.60;2.45;;;;;;;;;;5167809;28;20051;-83
2022/06/20 06:31:43;;;;;;;7.18;2.47;;;;;;;;;;5144073;29;20151;-84
2022/06/20 06:35:07;;;;;;;;;;;;;;;;;;;;;
2022/06/20 06:44:44;;;;;;;;;;;;;;;;;;;;;
2022/06/20 06:47:57;;;;;;;;;;;;;;;;;;;;;
2022/06/20 06:51:01;;;;;;;;;;;;;;;;;;;;;
2022/06/20 07:10:26;;;;;;;5.57;1.42;;;;;;;;;;5264563;28;20124;-85
2022/06/20 07:13:25;;;;;;;3.80;1.30;;;;;;;;;;5261102;28;20491;-85
2022/06/20 07:16:22;;;;;;;6.85;1.65;;;;;;;;;;5305202;28;20055;-84
2022/06/20 07:19:41;;;;;;;;;;;;;;;;;;;;;
2022/06/20 07:22:51;;;;;;;;;;;;;;;;;;;;;
2022/06/20 07:25:35;;;;;;;5.30;1.73;;;;;;;;;;5294122;28;40554;-84
2022/06/20 07:28:39;;;;;;;;;;;;;;;;;;;;;
2022/06/20 07:31:31;;;;;;;8.18;2.00;;;;;;;;;;5303586;28;39929;-84
2022/06/20 07:34:20;;;;;;;4.95;1.70;;;;;;;;;;5303657;28;20052;-84
2022/06/20 07:37:07;;;;;;;6.50;1.48;;;;;;;;;;5304966;28;20111;-84
2022/06/20 07:39:45;;;;;;;5.35;1.38;;;;;;;;;;5312658;28;20567;-83
2022/06/20 07:42:28;;;;;;;5.35;1.75;;;;;;;;;;5338556;28;20052;-84
2022/06/20 07:45:26;;;;;;;4.80;1.20;;;;;;;;;;5304766;28;20025;-84
2022/06/20 07:48:39;;;;;;;4.55;1.40;;;;;;;;;;5292781;28;20484;-83
2022/06/20 07:51:15;;;;;;;5.60;1.30;;;;;;;;;;5309569;28;20041;-84
2022/06/20 07:54:00;;;;;;;4.40;1.65;;;;;;;;;;5321811;28;20155;-83
2022/06/20 07:56:32;;;;;;;6.05;1.52;;;;;;;;;;5287986;28;20056;-84
2022/06/20 07:59:10;;;;;;;4.15;1.60;;;;;;;;;;5341225;27;20070;-83
2022/06/20 08:02:04;;;;;;;6.25;1.70;;;;;;;;;;5327171;27;20044;-84
2022/06/20 08:04:46;;;;;;;3.83;1.40;;;;;;;;;;5285294;28;20392;-84
2022/06/20 08:07:52;;;;;;;4.07;1.42;;;;;;;;;;5294949;28;20032;-84
2022/06/20 08:10:27;;;;;;;4.53;1.53;;;;;;;;;;5291683;27;20058;-83
2022/06/20 08:13:10;;;;;;;7.70;1.55;;;;;;;;;;5325392;28;20040;-84
2022/06/20 08:16:05;;;;;;;;;;;;;;;;;;;;;
2022/06/20 08:18:37;;;;;;;5.60;1.50;;;;;;;;;;5320881;28;41109;-84
2022/06/20 08:21:27;;;;;;;6.25;1.83;;;;;;;;;;5343015;27;20115;-83
2022/06/20 08:24:10;;;;;;;4.07;1.70;;;;;;;;;;5307667;28;20538;-84
2022/06/20 08:27:13;;;;;;;5.28;1.65;;;;;;;;;;5326361;28;20017;-83
2022/06/20 08:30:00;;;;;;;5.03;1.77;;;;;;;;;;5306945;28;20414;-84
2022/06/20 08:32:55;;;;;;;7.15;2.20;;;;;;;;;;5339575;27;20143;-84
2022/06/20 08:35:55;;;;;;;;;;;;;;;;;;;;;
2022/06/20 08:38:40;;;;;;;7.07;2.08;;;;;;;;;;5325838;28;41691;-84
2022/06/20 08:41:31;;;;;;;;;;;;;;;;;;;;;
2022/06/20 08:44:29;;;;;;;4.55;1.35;;;;;;;;;;5325757;28;40249;-83
2022/06/20 08:47:22;;;;;;;4.93;1.40;;;;;;;;;;5304194;27;20016;-84
2022/06/20 08:50:07;;;;;;;4.82;1.60;;;;;;;;;;5341545;27;20559;-85
2022/06/20 08:52:51;;;;;;;4.88;1.60;;;;;;;;;;5306701;28;20040;-84
2022/06/20 08:59:08;;;;;;;;;;;;;;;;;;;;;
2022/06/20 09:02:00;;;;;;;4.85;1.65;;;;;;;;;;5324609;28;41384;-84
2022/06/20 09:04:52;;;;;;;6.07;1.83;;;;;;;;;;5300417;28;20036;-85
2022/06/20 09:07:32;;;;;;;4.15;1.70;;;;;;;;;;5306927;28;20040;-84
2022/06/20 09:10:22;;;;;;;4.75;1.70;;;;;;;;;;5304621;28;20036;-84
2022/06/20 09:13:16;;;;;;;6.10;1.75;;;;;;;;;;5302835;28;20056;-84
2022/06/20 09:15:59;;;;;;;5.70;1.52;;;;;;;;;;5303383;28;20611;-84
2022/06/20 09:18:49;;;;;;;6.47;2.25;;;;;;;;;;5303375;28;20028;-84
2022/06/20 09:21:40;;;;;;;5.07;1.80;;;;;;;;;;5319737;28;20527;-84
2022/06/20 09:27:17;;;;;;;10.50;2.92;;;;;;;;;;5310191;28;20099;-83
2022/06/20 09:30:06;;;;;;;5.40;1.87;;;;;;;;;;5333094;28;21149;-83
2022/06/20 09:33:07;;;;;;;7.85;2.10;;;;;;;;;;5318299;28;20606;-83
2022/06/20 09:35:51;;;;;;;6.20;1.70;;;;;;;;;;5300041;28;20044;-83
2022/06/20 09:38:34;;;;;;;6.63;2.10;;;;;;;;;;5314336;27;20388;-84
2022/06/20 09:41:08;;;;;;;5.28;1.52;;;;;;;;;;5324887;28;20099;-84
2022/06/20 09:44:18;;;;;;;;;;;;;;;;;;;;;
2022/06/20 09:47:08;;;;;;;5.07;1.60;;;;;;;;;;5303075;28;40991;-83
2022/06/20 09:50:01;;;;;;;4.53;1.48;;;;;;;;;;5272747;28;20568;-84
2022/06/20 09:52:51;;;;;;;3.90;1.95;;;;;;;;;;5264491;28;20025;-83
2022/06/20 09:55:22;;;;;;;5.95;1.80;;;;;;;;;;5299115;28;20048;-84
2022/06/20 09:58:10;;;;;;;4.47;1.80;;;;;;;;;;5306329;28;20036;-83
2022/06/20 10:00:46;;;;;;;6.50;2.38;;;;;;;;;;5277524;28;20025;-84
2022/06/20 10:03:29;;;;;;;10.25;2.33;;;;;;;;;;5264388;28;20570;-83
2022/06/20 10:06:13;;;;;;;4.57;1.98;;;;;;;;;;5296465;28;20091;-83
2022/06/20 10:08:57;;;;;;;4.05;1.77;;;;;;;;;;5264256;28;20496;-83
2022/06/20 10:11:39;;;;;;;5.10;2.25;;;;;;;;;;5297686;28;20060;-84
2022/06/20 10:14:27;;;;;;;5.30;2.03;;;;;;;;;;5282724;28;20029;-83
2022/06/20 10:17:04;;;;;;;7.10;2.20;;;;;;;;;;5269920;28;20028;-83
2022/06/20 10:19:58;;;;;;;6.65;2.33;;;;;;;;;;5284857;28;20043;-81
2022/06/20 10:22:37;;;;;;;8.25;2.35;;;;;;;;;;5273446;28;20036;-83
2022/06/20 10:25:30;;;;;;;6.35;2.40;;;;;;;;;;5307571;28;20470;-84
2022/06/20 10:28:24;;;;;;;6.45;2.22;;;;;;;;;;5307808;28;20043;-83
2022/06/20 10:31:05;;;;;;;6.40;2.42;;;;;;;;;;5273577;28;20036;-84
2022/06/20 10:33:51;;;;;;;5.57;2.33;;;;;;;;;;5318596;28;20039;-83
2022/06/20 10:36:24;;;;;;;;;;;;;;;;;;5310253;27;20036;-84
2022/06/20 10:38:58;;;;;;;5.10;2.30;;;;;;;;;;5301660;28;20319;-83
2022/06/20 10:41:52;;;;;;;5.07;2.13;;;;;;;;;;5312802;28;20032;-84
2022/06/20 10:44:36;;;;;;;5.05;2.00;;;;;;;;;;5284715;28;20028;-84
2022/06/20 10:47:19;;;;;;;5.68;1.98;;;;;;;;;;5284002;28;20213;-84
2022/06/20 10:50:05;;;;;;;4.85;1.90;;;;;;;;;;5284067;28;20047;-84
2022/06/20 10:52:55;;;;;;;7.15;2.30;;;;;;;;;;5283199;28;20041;-83
2022/06/20 10:55:32;;;;;;;3.58;1.70;;;;;;;;;;5286259;28;20020;-83
2022/06/20 10:58:24;;;;;;;5.10;1.88;;;;;;;;;;5294340;28;20036;-84
2022/06/20 11:04:50;;;;;;;6.55;2.20;;;;;;;;;;5307701;28;20334;-84
2022/06/20 11:07:26;;;;;;;;;;;;;;;;;;5297989;28;20531;-84
2022/06/20 11:10:18;;;;;;;5.57;1.75;;;;;;;;;;5280627;28;20425;-84
2022/06/20 11:13:01;;;;;;;3.88;1.90;;;;;;;;;;5265369;28;20579;-83
2022/06/20 11:16:06;;;;;;;8.25;2.15;;;;;;;;;;5279755;28;20041;-84
2022/06/20 11:21:56;;;;;;;6.88;2.38;;;;;;;;;;5290792;28;20037;-84
2022/06/20 11:24:39;;;;;;;5.85;1.95;;;;;;;;;;5292702;28;20490;-84
2022/06/20 11:27:14;;;;;;;4.22;1.98;;;;;;;;;;5304462;28;20024;-84
2022/06/20 11:30:05;;;;;;;7.72;2.22;;;;;;;;;;5298597;28;20044;-83
2022/06/20 11:32:46;;;;;;;5.50;2.10;;;;;;;;;;5294880;28;20033;-83
2022/06/20 11:35:17;;;;;;;5.35;2.08;;;;;;;;;;5283556;28;20456;-84
2022/06/20 11:38:08;;;;;;;9.37;2.40;;;;;;;;;;5269394;28;20037;-84
2022/06/20 11:41:00;;;;;;;4.88;2.22;;;;;;;;;;5271648;28;20290;-84
2022/06/20 11:43:32;;;;;;;5.45;2.08;;;;;;;;;;5289575;28;20036;-83
2022/06/20 11:46:26;;;;;;;6.57;2.35;;;;;;;;;;5287019;28;20032;-83
2022/06/20 11:49:14;;;;;;;6.68;2.15;;;;;;;;;;5304773;27;20060;-83
2022/06/20 11:52:07;;;;;;;6.20;1.90;;;;;;;;;;5295876;27;20024;-84
2022/06/20 11:54:46;;;;;;;6.57;2.15;;;;;;;;;;5312410;27;20031;-83
2022/06/20 11:57:28;;;;;;;7.72;2.20;;;;;;;;;;5327085;27;20048;-84
2022/06/20 12:00:00;;;;;;;5.53;1.70;;;;;;;;;;5314030;27;20407;-84
2022/06/20 12:03:05;;;;;;;4.28;1.40;;;;;;;;;;5332805;27;20032;-84
2022/06/20 12:06:07;;;;;;;;;;;;;;;;;;;;;
2022/06/20 12:08:59;;;;;;;6.43;2.00;;;;;;;;;;5325811;28;40250;-84
2022/06/20 12:11:30;;;;;;;6.78;1.63;;;;;;;;;;5303475;28;20036;-84
2022/06/20 12:14:20;;;;;;;5.30;1.83;;;;;;;;;;5328209;27;20039;-84
2022/06/20 12:25:52;;;;;;;2.53;1.42;;;;;;;;;;5313847;28;20389;-83
2022/06/20 12:28:31;;;;;;;7.38;1.80;;;;;;;;;;5335427;27;20046;-83
2022/06/20 12:31:08;;;;;;;5.03;1.63;;;;;;;;;;5304421;28;20031;-83
2022/06/20 12:33:45;;;;;;;4.30;1.60;;;;;;;;;;5328889;27;20392;-84
2022/06/20 12:36:21;;;;;;;5.85;1.70;;;;;;;;;;5320111;27;20036;-83
2022/06/20 12:38:59;;;;;;;7.22;1.80;;;;;;;;;;5342308;27;20025;-84
2022/06/20 12:41:37;;;;;;;4.95;1.63;;;;;;;;;;5298055;27;20086;-83
2022/06/20 12:44:25;;;;;;;5.32;1.85;;;;;;;;;;5313253;27;20028;-83
2022/06/20 12:46:57;;;;;;;6.60;2.05;;;;;;;;;;5298105;27;20060;-84
2022/06/20 12:49:37;;;;;;;3.15;1.58;;;;;;;;;;5333592;27;20055;-84
2022/06/20 12:52:18;;;;;;;4.18;1.50;;;;;;;;;;5298666;27;20027;-84
2022/06/20 12:55:02;;;;;;;4.13;1.48;;;;;;;;;;5328200;27;20036;-84
2022/06/20 12:57:40;;;;;;;3.40;1.50;;;;;;;;;;5294027;27;20032;-83
2022/06/20 13:00:14;;;;;;;3.55;1.40;;;;;;;;;;5330444;27;20283;-85
2022/06/20 13:02:51;;;;;;;6.72;1.70;;;;;;;;;;5313443;27;20035;-83
2022/06/20 13:05:37;;;;;;;9.57;1.63;;;;;;;;;;5315703;27;20039;-84
2022/06/20 13:08:15;;;;;;;5.90;2.00;;;;;;;;;;5326577;27;20032;-84
2022/06/20 13:10:50;;;;;;;10.45;1.98;;;;;;;;;;5298650;27;20021;-84
2022/06/20 13:13:33;;;;;;;6.07;1.75;;;;;;;;;;5298444;27;20726;-84
2022/06/20 13:16:09;;;;;;;6.85;1.90;;;;;;;;;;5300742;28;21696;-84
2022/06/20 13:19:02;;;;;;;4.03;1.70;;;;;;;;;;5317905;27;20025;-83
2022/06/20 13:21:33;;;;;;;4.65;1.60;;;;;;;;;;5307676;27;20040;-84
2022/06/20 13:24:14;;;;;;;5.30;1.35;;;;;;;;;;5325505;27;20027;-83
2022/06/20 13:27:04;;;;;;;4.53;1.52;;;;;;;;;;5302711;27;20051;-84
2022/06/20 13:29:35;;;;;;;5.82;1.58;;;;;;;;;;5326675;27;20059;-84
2022/06/20 13:32:17;;;;;;;8.30;2.00;;;;;;;;;;5329984;27;20064;-84
2022/06/20 13:34:55;;;;;;;9.02;1.88;;;;;;;;;;5313971;27;20279;-83
2022/06/20 13:37:32;;;;;;;8.18;1.90;;;;;;;;;;5314598;27;20043;-84
2022/06/20 13:40:18;;;;;;;7.28;1.90;;;;;;;;;;5327706;27;20024;-84
2022/06/20 13:43:11;;;;;;;8.27;1.92;;;;;;;;;;5331337;27;20495;-83
2022/06/20 13:45:48;;;;;;;15.90;2.15;;;;;;;;;;5297082;27;20024;-83
2022/06/20 13:48:34;;;;;;;13.25;2.60;;;;;;;;;;5298397;27;20052;-84
2022/06/20 13:51:24;;;;;;;11.35;2.15;;;;;;;;;;5325121;27;20385;-84
2022/06/20 13:54:14;;;;;;;11.88;2.10;;;;;;;;;;5303790;27;20062;-84
2022/06/20 13:56:57;;;;;;;18.45;2.60;;;;;;;;;;5328894;27;20046;-83
2022/06/20 13:59:37;;;;;;;8.30;1.90;;;;;;;;;;5328480;27;20112;-83
2022/06/20 14:02:27;;;;;;;8.52;1.70;;;;;;;;;;5291696;27;20038;-84
2022/06/20 14:05:19;;;;;;;4.13;1.70;;;;;;;;;;5326518;27;20416;-84
2022/06/20 14:07:52;;;;;;;11.82;2.30;;;;;;;;;;5298255;27;20046;-84
2022/06/20 14:10:33;;;;;;;6.95;2.30;;;;;;;;;;5295954;27;20028;-83
2022/06/20 14:13:12;;;;;;;7.60;2.28;;;;;;;;;;5315455;28;20032;-82
2022/06/20 14:15:43;;;;;;;8.55;2.10;;;;;;;;;;5286421;28;20036;-82
2022/06/20 14:18:14;;;;;;;6.80;1.70;;;;;;;;;;5302275;28;20369;-82
2022/06/20 14:20:58;;;;;;;7.18;2.20;;;;;;;;;;5311095;27;20151;-82
2022/06/20 14:23:30;;;;;;;6.50;1.83;;;;;;;;;;5302657;28;20025;-82
2022/06/20 14:26:04;;;;;;;8.43;2.10;;;;;;;;;;5305012;28;20055;-82
2022/06/20 14:28:48;;;;;;;8.25;1.88;;;;;;;;;;5334327;27;20508;-82
2022/06/20 14:31:46;;;;;;;6.05;2.10;;;;;;;;;;5305844;28;20105;-81
2022/06/20 14:34:30;;;;;;;6.38;1.85;;;;;;;;;;5324091;28;20112;-82
2022/06/20 14:37:11;;;;;;;7.53;2.08;;;;;;;;;;5305344;27;20044;-82
2022/06/20 14:39:45;;;;;;;6.20;1.77;;;;;;;;;;5296411;28;20048;-82
2022/06/20 14:42:26;;;;;;;10.40;2.58;;;;;;;;;;5302023;28;20031;-82
2022/06/20 14:44:59;;;;;;;5.28;1.92;;;;;;;;;;5301804;28;20024;-82
2022/06/20 14:47:51;;;;;;;8.07;2.20;;;;;;;;;;5312956;27;20099;-81
2022/06/20 14:50:25;;;;;;;10.43;2.20;;;;;;;;;;5326332;28;20065;-81
2022/06/20 14:52:56;;;;;;;5.75;2.03;;;;;;;;;;5308864;28;20083;-81
2022/06/20 14:55:34;;;;;;;7.75;1.88;;;;;;;;;;5337396;27;20113;-81
2022/06/20 14:58:30;;;;;;;6.97;1.90;;;;;;;;;;5301660;28;20033;-82
2022/06/20 15:01:09;;;;;;;5.85;2.00;;;;;;;;;;5287847;28;20055;-82
2022/06/20 15:03:59;;;;;;;8.85;2.45;;;;;;;;;;5305997;28;20538;-81
2022/06/20 15:06:51;;;;;;;7.70;2.65;;;;;;;;;;5322965;28;20384;-82
2022/06/20 15:09:32;;;;;;;9.30;2.70;;;;;;;;;;5302740;27;20402;-81
2022/06/20 15:12:29;;;;;;;9.73;2.33;;;;;;;;;;5292216;27;20349;-82
2022/06/20 15:15:07;;;;;;;6.95;2.17;;;;;;;;;;5278570;28;20041;-82
2022/06/20 15:17:57;;;;;;;7.55;2.20;;;;;;;;;;5301881;28;20036;-82
2022/06/20 15:20:30;;;;;;;9.27;2.10;;;;;;;;;;5303080;27;20029;-82
2022/06/20 15:23:06;;;;;;;4.45;1.98;;;;;;;;;;5299702;28;20107;-82
2022/06/20 15:25:45;;;;;;;17.42;3.03;;;;;;;;;;5302515;28;20028;-82
2022/06/20 15:28:20;;;;;;;8.23;2.22;;;;;;;;;;5322040;28;20032;-81
2022/06/20 15:30:54;;;;;;;6.25;2.17;;;;;;;;;;5304734;27;20028;-82
2022/06/20 15:33:25;;;;;;;10.25;2.15;;;;;;;;;;5309746;28;20028;-81
2022/06/20 15:36:19;;;;;;;7.93;2.17;;;;;;;;;;5310655;28;20024;-82
2022/06/20 15:39:09;;;;;;;9.55;2.25;;;;;;;;;;5305113;27;20048;-81
2022/06/20 15:44:41;;;;;;;8.18;2.40;;;;;;;;;;5318244;27;20397;-82
2022/06/20 15:47:16;;;;;;;8.75;1.95;;;;;;;;;;5301756;27;20036;-82
2022/06/20 15:50:01;;;;;;;9.30;2.50;;;;;;;;;;5313391;27;20131;-82
2022/06/20 15:52:38;;;;;;;8.18;1.98;;;;;;;;;;5320773;27;20032;-82
2022/06/20 15:55:20;;;;;;;4.35;2.00;;;;;;;;;;5315615;27;20064;-82
2022/06/20 15:58:00;;;;;;;7.05;2.28;;;;;;;;;;5294529;27;20431;-82
2022/06/20 16:01:07;;;;;;;7.15;2.60;;;;;;;;;;5312599;27;20354;-82
2022/06/20 16:03:57;;;;;;;8.23;2.40;;;;;;;;;;5248113;28;20113;-81
2022/06/20 16:06:30;;;;;;;6.93;2.47;;;;;;;;;;5294672;27;20067;-82
2022/06/20 16:09:12;;;;;;;7.72;2.70;;;;;;;;;;5296476;27;20071;-82
2022/06/20 16:11:52;;;;;;;7.47;2.55;;;;;;;;;;5307163;28;20032;-82
2022/06/20 16:14:27;;;;;;;7.72;2.65;;;;;;;;;;5328502;27;20068;-83
2022/06/20 16:16:59;;;;;;;5.93;2.58;;;;;;;;;;5328772;27;20369;-83
2022/06/20 16:19:33;;;;;;;11.60;3.03;;;;;;;;;;5291901;28;20044;-83
2022/06/20 16:22:07;;;;;;;9.35;2.72;;;;;;;;;;5322015;27;20108;-82
2022/06/20 16:24:40;;;;;;;7.22;2.33;;;;;;;;;;5297686;28;20489;-83
2022/06/20 16:27:22;;;;;;;8.10;2.58;;;;;;;;;;5289458;28;20035;-83
2022/06/20 16:29:55;;;;;;;6.65;2.83;;;;;;;;;;5293395;28;20035;-83
2022/06/20 16:32:29;;;;;;;11.77;2.53;;;;;;;;;;5298066;28;20483;-81
2022/06/20 16:35:19;;;;;;;7.78;2.72;;;;;;;;;;5313215;27;20151;-82
2022/06/20 16:38:09;;;;;;;9.30;2.65;;;;;;;;;;5332347;27;20695;-83
2022/06/20 16:40:43;;;;;;;9.30;2.53;;;;;;;;;;5330141;27;20506;-82
2022/06/20 16:43:18;;;;;;;7.47;2.40;;;;;;;;;;5290023;27;20119;-82
2022/06/20 16:45:52;;;;;;;11.45;2.80;;;;;;;;;;5294223;28;20043;-82
2022/06/20 16:48:24;;;;;;;10.70;2.85;;;;;;;;;;5309973;27;20150;-82
2022/06/20 16:51:01;;;;;;;6.75;2.30;;;;;;;;;;5297248;28;20570;-82
2022/06/20 16:53:35;;;;;;;9.10;2.47;;;;;;;;;;5308981;28;20449;-82
2022/06/20 16:56:08;;;;;;;8.55;2.45;;;;;;;;;;5313670;28;20032;-82
2022/06/20 16:58:58;;;;;;;9.32;2.90;;;;;;;;;;5325353;27;20598;-83
2022/06/20 17:01:33;;;;;;;7.38;2.53;;;;;;;;;;5323941;27;20123;-83
2022/06/20 17:04:31;;;;;;;5.40;2.35;;;;;;;;;;5298683;28;20055;-82
2022/06/20 17:07:10;;;;;;;11.15;2.42;;;;;;;;;;5301107;28;20036;-83
2022/06/20 17:09:44;;;;;;;8.15;2.75;;;;;;;;;;5304997;28;20028;-83
2022/06/20 17:12:23;;;;;;;7.85;2.80;;;;;;;;;;5335311;27;20028;-83
2022/06/20 17:14:57;;;;;;;8.43;2.42;;;;;;;;;;5307033;28;20024;-82
2022/06/20 17:17:36;;;;;;;8.18;2.45;;;;;;;;;;5340131;27;20119;-82
2022/06/20 17:20:07;;;;;;;7.18;2.10;;;;;;;;;;5307068;28;20119;-82
2022/06/20 17:22:52;;;;;;;8.97;2.30;;;;;;;;;;5338787;27;20162;-83
2022/06/20 17:25:44;;;;;;;8.10;2.25;;;;;;;;;;5335774;27;20048;-83
2022/06/20 17:28:51;;;;;;;7.82;2.35;;;;;;;;;;5305434;28;20491;-83
2022/06/20 17:31:31;;;;;;;14.35;2.90;;;;;;;;;;5263846;28;20608;-83
2022/06/20 17:34:09;;;;;;;8.82;2.25;;;;;;;;;;5295972;28;20041;-83
2022/06/20 17:36:57;;;;;;;5.05;2.20;;;;;;;;;;5293625;28;20546;-83
2022/06/20 17:39:49;;;;;;;7.95;2.35;;;;;;;;;;5299320;28;20483;-83
2022/06/20 17:42:31;;;;;;;4.43;2.42;;;;;;;;;;5300613;28;20032;-83
2022/06/20 17:45:21;;;;;;;6.15;2.53;;;;;;;;;;5302310;28;20036;-83
2022/06/20 17:47:52;;;;;;;7.22;2.20;;;;;;;;;;5318919;28;20082;-83
2022/06/20 17:50:23;;;;;;;8.00;2.30;;;;;;;;;;5323939;27;20028;-83
2022/06/20 17:53:10;;;;;;;9.57;2.88;;;;;;;;;;5319066;27;20466;-82
2022/06/20 17:56:20;;;;;;;6.45;2.53;;;;;;;;;;5288625;28;20128;-82
2022/06/20 17:58:51;;;;;;;7.32;2.00;;;;;;;;;;5249312;28;20441;-82
2022/06/20 18:01:30;;;;;;;7.97;2.17;;;;;;;;;;5247976;28;20029;-82
2022/06/20 18:04:06;;;;;;;6.45;2.30;;;;;;;;;;5274213;28;20354;-83
2022/06/20 18:06:40;;;;;;;7.50;2.30;;;;;;;;;;5311251;28;20104;-82
2022/06/20 18:09:25;;;;;;;4.97;2.15;;;;;;;;;;5323030;28;20070;-81
2022/06/20 18:12:09;;;;;;;7.18;2.72;;;;;;;;;;5304388;28;20429;-82
2022/06/20 18:14:59;;;;;;;7.80;2.10;;;;;;;;;;5304897;28;20032;-82
2022/06/20 18:17:37;;;;;;;10.77;2.50;;;;;;;;;;5324577;28;20031;-82
2022/06/20 18:20:21;;;;;;;6.95;2.13;;;;;;;;;;5306014;28;20028;-83
2022/06/20 18:22:56;;;;;;;4.85;2.20;;;;;;;;;;5289363;28;20499;-82
2022/06/20 18:25:47;;;;;;;9.20;2.53;;;;;;;;;;5324948;27;20036;-81
2022/06/20 18:28:20;;;;;;;7.82;2.00;;;;;;;;;;5305814;27;20111;-82
2022/06/20 18:30:52;;;;;;;4.95;2.10;;;;;;;;;;5302877;28;20052;-83
2022/06/20 18:33:26;;;;;;;4.90;2.20;;;;;;;;;;5306092;27;20122;-82
2022/06/20 18:35:58;;;;;;;6.20;2.42;;;;;;;;;;5313409;27;20176;-82
2022/06/20 18:38:30;;;;;;;7.10;2.63;;;;;;;;;;5292261;28;20024;-82
2022/06/20 18:41:08;;;;;;;7.30;2.50;;;;;;;;;;5321719;27;20028;-82
2022/06/20 18:43:45;;;;;;;6.25;2.38;;;;;;;;;;5289821;28;20028;-82
2022/06/20 18:46:21;;;;;;;7.60;2.40;;;;;;;;;;5298836;27;20043;-82
2022/06/20 18:49:11;;;;;;;5.43;2.10;;;;;;;;;;5292570;27;20060;-83
2022/06/20 18:51:55;;;;;;;10.80;2.47;;;;;;;;;;5326804;27;20467;-82
2022/06/20 18:54:32;;;;;;;6.35;2.63;;;;;;;;;;5311442;27;20123;-82
2022/06/20 18:57:17;;;;;;;5.03;2.08;;;;;;;;;;5324071;27;20031;-82
2022/06/20 19:00:12;;;;;;;7.50;2.55;;;;;;;;;;5317941;27;20418;-82
2022/06/20 19:02:58;;;;;;;11.73;2.53;;;;;;;;;;5291991;27;20118;-82
2022/06/20 19:05:33;;;;;;;6.43;2.58;;;;;;;;;;5320482;27;20104;-82
2022/06/20 19:08:16;;;;;;;4.70;2.25;;;;;;;;;;5300463;27;20040;-82
2022/06/20 19:11:06;;;;;;;5.93;2.72;;;;;;;;;;5315774;27;20028;-81
2022/06/20 19:13:43;;;;;;;7.47;2.90;;;;;;;;;;5340235;27;20433;-81
2022/06/20 19:16:30;;;;;;;8.40;2.80;;;;;;;;;;5304240;28;20036;-81
2022/06/20 19:19:13;;;;;;;6.25;2.47;;;;;;;;;;5305326;28;20085;-81
2022/06/20 19:22:03;;;;;;;7.15;2.47;;;;;;;;;;5306157;28;20068;-81
2022/06/20 19:24:45;;;;;;;3.78;2.13;;;;;;;;;;5339683;27;20089;-81
2022/06/20 19:27:22;;;;;;;9.25;3.05;;;;;;;;;;5342408;27;20070;-81
2022/06/20 19:29:56;;;;;;;5.80;2.35;;;;;;;;;;5295895;28;20094;-81
2022/06/20 19:32:36;;;;;;;6.68;2.30;;;;;;;;;;5298134;27;20037;-81
2022/06/20 19:35:10;;;;;;;6.95;2.58;;;;;;;;;;5295493;28;20058;-81
2022/06/20 19:37:42;;;;;;;5.68;2.17;;;;;;;;;;5306950;28;20040;-81
2022/06/20 19:40:14;;;;;;;6.95;2.50;;;;;;;;;;5294284;28;20035;-82
2022/06/20 19:43:01;;;;;;;8.32;2.83;;;;;;;;;;5339062;27;20029;-82
2022/06/20 19:45:51;;;;;;;8.82;2.70;;;;;;;;;;5307269;28;20433;-80
2022/06/20 19:48:30;;;;;;;8.40;3.42;;;;;;;;;;5298278;28;20310;-82
2022/06/20 19:51:09;;;;;;;5.10;2.70;;;;;;;;;;5335920;27;20031;-82
2022/06/20 19:53:43;;;;;;;6.32;2.67;;;;;;;;;;5308411;28;20028;-81
2022/06/20 19:56:14;;;;;;;8.10;2.55;;;;;;;;;;5307362;28;20130;-81
2022/06/20 19:58:49;;;;;;;7.55;2.78;;;;;;;;;;5338957;27;20515;-81
2022/06/20 20:01:23;;;;;;;4.82;2.45;;;;;;;;;;5303862;28;20028;-82
2022/06/20 20:04:03;;;;;;;6.50;2.78;;;;;;;;;;5326473;27;20028;-82
2022/06/20 20:06:54;;;;;;;10.30;3.08;;;;;;;;;;5341154;27;20415;-82
2022/06/20 20:09:26;;;;;;;6.72;2.60;;;;;;;;;;5303232;28;20024;-81
2022/06/20 20:11:58;;;;;;;10.23;2.78;;;;;;;;;;5305677;27;20031;-81
2022/06/20 20:14:29;;;;;;;4.68;2.83;;;;;;;;;;5307800;28;20029;-82
2022/06/20 20:17:08;;;;;;;8.80;3.05;;;;;;;;;;5305001;28;20066;-81
2022/06/20 20:19:41;;;;;;;6.25;2.70;;;;;;;;;;5303714;28;20116;-81
2022/06/20 20:22:20;;;;;;;6.15;2.97;;;;;;;;;;5305833;28;20443;-82
2022/06/20 20:25:10;;;;;;;6.80;3.05;;;;;;;;;;5297821;28;20040;-82
2022/06/20 20:27:55;;;;;;;7.38;3.13;;;;;;;;;;5327857;27;20032;-81
2022/06/20 20:30:36;;;;;;;6.35;3.20;;;;;;;;;;5306226;28;20099;-82
2022/06/20 20:33:13;;;;;;;12.98;2.95;;;;;;;;;;5318321;28;20082;-81
2022/06/20 20:36:08;;;;;;;12.52;3.38;;;;;;;;;;5305153;27;20242;-82
2022/06/20 20:38:45;;;;;;;5.88;3.13;;;;;;;;;;5294661;27;20505;-82
2022/06/20 20:41:24;;;;;;;5.85;3.15;;;;;;;;;;5339153;27;20085;-82
2022/06/20 20:44:09;;;;;;;7.68;2.92;;;;;;;;;;5320323;27;20020;-82
2022/06/20 20:46:59;;;;;;;5.95;3.10;;;;;;;;;;5335058;27;20075;-82
2022/06/20 20:49:42;;;;;;;9.95;3.20;;;;;;;;;;5329715;27;20488;-82
2022/06/20 20:52:36;;;;;;;8.70;3.50;;;;;;;;;;5330545;27;20035;-82
2022/06/20 20:55:10;;;;;;;8.57;3.33;;;;;;;;;;5309643;27;20032;-81
2022/06/20 20:57:46;;;;;;;6.95;3.58;;;;;;;;;;5323249;28;20032;-82
2022/06/20 21:00:19;;;;;;;5.65;2.83;;;;;;;;;;5333535;27;20032;-81
2022/06/20 21:02:54;;;;;;;8.02;3.15;;;;;;;;;;5305212;28;20025;-81
2022/06/20 21:05:27;;;;;;;10.43;3.35;;;;;;;;;;5306362;28;20031;-82
2022/06/20 21:08:06;;;;;;;5.72;2.60;;;;;;;;;;5297247;28;20162;-82
2022/06/20 21:10:40;;;;;;;9.02;3.30;;;;;;;;;;5305846;28;20031;-82
2022/06/20 21:13:22;;;;;;;8.38;3.15;;;;;;;;;;5314605;27;20024;-81
2022/06/20 21:15:57;;;;;;;5.88;3.10;;;;;;;;;;5315720;27;20094;-82
2022/06/20 21:18:33;;;;;;;4.47;3.03;;;;;;;;;;5290993;27;20040;-82
2022/06/20 21:21:31;;;;;;;7.45;3.40;;;;;;;;;;5313010;27;20038;-82
2022/06/20 21:24:02;;;;;;;;;;;;;;;;;;5288571;27;21392;-81
2022/06/20 21:26:36;;;;;;;5.93;2.97;;;;;;;;;;5293861;28;20349;-81
2022/06/20 21:29:11;;;;;;;5.88;3.58;;;;;;;;;;5292980;28;20458;-83
2022/06/20 21:31:58;;;;;;;5.25;3.70;;;;;;;;;;5306388;28;20024;-82
2022/06/20 21:34:37;;;;;;;10.55;3.58;;;;;;;;;;5306926;28;20024;-82
2022/06/20 21:37:20;;;;;;;7.72;3.80;;;;;;;;;;5303658;27;20039;-82
2022/06/20 21:40:11;;;;;;;7.40;3.97;;;;;;;;;;5302371;28;20035;-82
2022/06/20 21:42:47;;;;;;;8.05;4.55;;;;;;;;;;5290686;28;20131;-83
2022/06/20 21:45:51;;;;;;;7.28;4.55;;;;;;;;;;5305005;28;20024;-81
2022/06/20 21:48:26;;;;;;;6.22;4.55;;;;;;;;;;5279437;28;20389;-81
2022/06/20 21:51:03;;;;;;;7.15;5.35;;;;;;;;;;5304037;28;20037;-80
2022/06/20 21:53:50;;;;;;;7.47;5.20;;;;;;;;;;5297522;28;20040;-82
2022/06/20 21:56:30;;;;;;;8.40;4.40;;;;;;;;;;5286147;28;20032;-81
2022/06/20 21:59:09;;;;;;;7.07;5.40;;;;;;;;;;5297198;28;20364;-81
2022/06/20 22:04:38;;;;;;;10.23;5.45;;;;;;;;;;5310379;28;20477;-81
2022/06/20 22:07:09;;;;;;;9.73;5.00;;;;;;;;;;5293507;28;20024;-81